Time;durP1;ratioP1;P1;durP2;ratioP2;P2;SDS_P1;SDS_P2;PMS_P1;PMS_P2;Temp;Humidity;BMP_temperature;BMP_pressure;BME280_temperature;BME280_humidity;BME280_pressure;Samples;Min_cycle;Max_cycle;Signal;HPM_P1;HPM_P2
2022/07/28 00:02:23;;;;;;;2.33;0.70;;;24.20;43.20;23.50;101679.00;;;;5030365;28;20042;-66
2022/07/28 00:05:10;;;;;;;2.45;0.57;;;24.20;43.30;23.40;101682.00;;;;5028882;28;20049;-66
2022/07/28 00:07:56;;;;;;;0.10;0.10;;;24.20;43.30;23.40;101681.00;;;;5021373;28;20045;-66
2022/07/28 00:10:42;;;;;;;1.42;0.38;;;24.20;43.30;23.40;101681.00;;;;5022192;28;20056;-66
2022/07/28 00:13:28;;;;;;;2.30;0.30;;;24.20;43.40;23.40;101677.00;;;;5031640;28;20041;-66
2022/07/28 00:16:14;;;;;;;0.30;0.30;;;24.20;43.30;23.40;101679.00;;;;5027089;28;20045;-66
2022/07/28 00:19:00;;;;;;;0.82;0.30;;;24.10;43.30;23.40;101684.00;;;;5028082;28;20045;-66
2022/07/28 00:21:46;;;;;;;2.17;0.50;;;24.20;43.40;23.40;101676.00;;;;5025628;28;20048;-66
2022/07/28 00:24:32;;;;;;;1.02;0.60;;;24.10;43.30;23.40;101672.00;;;;5028267;28;20041;-66
2022/07/28 00:27:18;;;;;;;0.60;0.40;;;24.10;43.40;23.40;101681.00;;;;5026054;28;20064;-66
2022/07/28 00:30:08;;;;;;;0.65;0.45;;;24.00;43.40;23.30;101676.00;;;;5021755;28;20045;-65
2022/07/28 00:32:54;;;;;;;1.10;0.47;;;24.10;43.40;23.30;101669.00;;;;5029410;28;20121;-65
2022/07/28 00:35:40;;;;;;;1.08;0.22;;;24.10;43.40;23.30;101678.00;;;;5026972;28;20036;-65
2022/07/28 00:38:26;;;;;;;0.60;0.30;;;24.10;43.40;23.30;101676.00;;;;5026421;28;20048;-66
2022/07/28 00:41:13;;;;;;;1.02;0.45;;;24.00;43.40;23.30;101675.00;;;;5027114;28;20041;-66
2022/07/28 00:43:59;;;;;;;1.20;0.60;;;24.00;43.40;23.30;101678.00;;;;5007820;28;20038;-66
2022/07/28 00:46:45;;;;;;;1.05;0.38;;;24.10;43.50;23.30;101668.00;;;;5021864;28;20041;-66
2022/07/28 00:49:31;;;;;;;0.82;0.30;;;24.00;43.50;23.30;101663.00;;;;5019403;28;20033;-66
2022/07/28 00:52:17;;;;;;;1.00;0.40;;;24.00;43.50;23.30;101675.00;;;;5024448;28;20041;-66
2022/07/28 00:55:04;;;;;;;0.85;0.40;;;24.00;43.50;23.30;101658.00;;;;5024795;28;20049;-65
2022/07/28 00:57:50;;;;;;;0.50;0.30;;;24.00;43.50;23.30;101670.00;;;;5024453;28;20126;-66
2022/07/28 01:00:36;;;;;;;0.70;0.40;;;24.00;43.50;23.20;101666.00;;;;5023657;28;20033;-66
2022/07/28 01:03:22;;;;;;;0.77;0.50;;;24.00;43.60;23.20;101662.00;;;;5027954;28;20401;-66
2022/07/28 01:06:30;;;;;;;0.95;0.32;;;24.00;43.60;23.20;101666.00;;;;4996645;28;20045;-66
2022/07/28 01:09:27;;;;;;;0.68;0.40;;;24.00;43.60;23.20;101664.00;;;;5027757;28;20050;-66
2022/07/28 01:13:02;;;;;;;0.47;0.45;;;24.00;43.60;23.20;101658.00;;;;5009448;28;20120;-66
2022/07/28 01:15:55;;;;;;;0.73;0.40;;;24.00;43.60;23.20;101662.00;;;;5012096;28;20135;-66
2022/07/28 01:18:51;;;;;;;0.50;0.28;;;24.00;43.50;23.20;101653.00;;;;5027131;28;20132;-66
2022/07/28 01:21:37;;;;;;;1.20;0.40;;;23.80;43.50;23.20;101651.00;;;;5026729;28;20052;-66
2022/07/28 01:24:46;;;;;;;0.60;0.45;;;23.90;43.60;23.10;101643.00;;;;4999731;28;20042;-66
2022/07/28 01:28:10;;;;;;;1.65;0.50;;;23.90;43.50;23.10;101637.00;;;;5026905;28;20045;-66
2022/07/28 01:30:57;;;;;;;0.82;0.60;;;23.90;43.60;23.10;101642.00;;;;5023255;28;20049;-66
2022/07/28 01:33:46;;;;;;;1.00;0.40;;;23.90;43.70;23.10;101638.00;;;;5023454;28;20033;-65
2022/07/28 01:36:37;;;;;;;1.23;0.40;;;23.90;43.80;23.10;101634.00;;;;5030194;28;20652;-66
2022/07/28 01:39:27;;;;;;;1.25;0.40;;;23.90;43.80;23.10;101636.00;;;;4987190;28;20125;-66
2022/07/28 01:42:13;;;;;;;0.25;0.25;;;23.80;43.70;23.10;101638.00;;;;5024681;28;20052;-66
2022/07/28 01:44:59;;;;;;;0.93;0.70;;;23.80;43.70;23.10;101641.00;;;;5031483;28;20120;-66
2022/07/28 01:47:48;;;;;;;0.70;0.40;;;23.80;43.60;23.10;101638.00;;;;5027850;28;20049;-66
2022/07/28 01:50:34;;;;;;;0.40;0.30;;;23.90;43.60;23.10;101641.00;;;;5030003;28;20064;-65
2022/07/28 01:53:20;;;;;;;1.75;0.35;;;23.70;43.50;23.10;101641.00;;;;4997025;28;20064;-66
2022/07/28 01:56:06;;;;;;;1.40;0.40;;;23.80;43.70;23.10;101647.00;;;;5020722;28;20495;-66
2022/07/28 01:58:54;;;;;;;1.60;0.32;;;23.80;43.70;23.10;101637.00;;;;5027753;28;20041;-66
2022/07/28 02:01:42;;;;;;;0.35;0.32;;;23.80;43.60;23.00;101641.00;;;;5016813;28;20112;-66
2022/07/28 02:04:28;;;;;;;1.58;0.40;;;23.80;43.70;23.00;101632.00;;;;5031524;28;20044;-65
2022/07/28 02:07:15;;;;;;;1.95;0.47;;;23.80;43.60;23.00;101636.00;;;;5009297;28;20049;-66
2022/07/28 02:10:01;;;;;;;0.88;0.50;;;23.80;43.60;23.00;101630.00;;;;5020112;28;20049;-66
2022/07/28 02:12:49;;;;;;;1.45;0.75;;;23.80;43.60;23.00;101630.00;;;;5024700;28;20053;-66
2022/07/28 02:15:35;;;;;;;0.80;0.50;;;23.80;43.60;23.00;101634.00;;;;5023061;28;20033;-66
2022/07/28 02:18:21;;;;;;;0.50;0.30;;;23.70;43.60;23.00;101631.00;;;;5038124;28;20041;-66
2022/07/28 02:21:07;;;;;;;1.13;0.40;;;23.80;43.70;23.00;101632.00;;;;5010660;28;20103;-66
2022/07/28 02:23:53;;;;;;;1.05;0.50;;;23.70;43.70;23.00;101632.00;;;;5009980;28;20038;-65
2022/07/28 02:26:41;;;;;;;0.50;0.30;;;23.70;43.70;23.00;101631.00;;;;5025624;28;20072;-66
2022/07/28 02:29:27;;;;;;;0.40;0.40;;;23.70;43.60;23.00;101622.00;;;;5023891;28;20116;-66
2022/07/28 02:32:19;;;;;;;2.20;0.40;;;23.80;43.70;23.00;101622.00;;;;5036982;28;20084;-66
2022/07/28 02:35:15;;;;;;;1.05;0.70;;;23.70;43.60;23.00;101618.00;;;;5012208;28;20422;-66
2022/07/28 02:38:06;;;;;;;1.27;0.40;;;23.70;43.70;23.00;101622.00;;;;5012644;28;20041;-66
2022/07/28 02:40:53;;;;;;;1.25;0.60;;;23.70;43.60;23.00;101622.00;;;;5038173;28;20427;-66
2022/07/28 02:43:39;;;;;;;1.00;0.47;;;23.70;43.60;23.00;101623.00;;;;5023626;28;20046;-65
2022/07/28 02:46:30;;;;;;;0.30;0.30;;;23.60;43.60;23.00;101617.00;;;;5024958;28;20041;-66
2022/07/28 02:49:23;;;;;;;1.02;0.50;;;23.70;43.70;23.00;101609.00;;;;5021872;28;20052;-66
2022/07/28 02:52:09;;;;;;;0.30;0.30;;;23.80;43.70;22.90;101615.00;;;;5027210;28;20415;-65
2022/07/28 02:54:55;;;;;;;0.63;0.43;;;23.70;43.70;22.90;101609.00;;;;4994779;28;20062;-66
2022/07/28 02:57:43;;;;;;;0.80;0.40;;;23.70;43.70;22.90;101616.00;;;;5023188;28;20038;-66
2022/07/28 03:00:29;;;;;;;1.00;0.40;;;23.70;43.70;22.90;101618.00;;;;5021814;28;20094;-66
2022/07/28 03:03:18;;;;;;;1.05;0.50;;;23.70;43.70;22.90;101609.00;;;;5022823;28;20115;-66
2022/07/28 03:06:04;;;;;;;0.40;0.30;;;23.70;43.70;22.90;101614.00;;;;5015411;28;20045;-65
2022/07/28 03:08:50;;;;;;;1.20;0.40;;;23.70;43.80;22.90;101629.00;;;;5021199;28;20385;-66
2022/07/28 03:11:51;;;;;;;0.95;0.50;;;23.70;43.80;22.90;101631.00;;;;5017431;28;20041;-66
2022/07/28 03:14:37;;;;;;;1.10;0.40;;;23.70;43.70;22.90;101633.00;;;;5017206;28;20034;-66
2022/07/28 03:17:23;;;;;;;0.30;0.20;;;23.60;43.60;22.90;101628.00;;;;5024242;28;20048;-66
2022/07/28 03:20:10;;;;;;;0.47;0.35;;;23.60;43.60;22.90;101633.00;;;;5023742;28;20045;-66
2022/07/28 03:22:57;;;;;;;0.55;0.45;;;23.60;43.50;22.80;101638.00;;;;5027796;28;20033;-66
2022/07/28 03:25:49;;;;;;;0.68;0.52;;;23.60;43.60;22.80;101636.00;;;;5023329;28;20041;-66
2022/07/28 03:28:35;;;;;;;1.67;0.70;;;23.60;43.50;22.80;101641.00;;;;5040662;28;20045;-65
2022/07/28 03:31:21;;;;;;;0.75;0.30;;;23.60;43.60;22.80;101639.00;;;;5028582;28;20064;-66
2022/07/28 03:34:10;;;;;;;1.40;0.45;;;23.50;43.60;22.80;101643.00;;;;5023833;28;20061;-66
2022/07/28 03:37:04;;;;;;;2.42;0.40;;;23.60;43.60;22.80;101651.00;;;;5027240;28;20064;-65
2022/07/28 03:39:50;;;;;;;1.15;0.47;;;23.60;43.60;22.80;101644.00;;;;5022407;28;20057;-66
2022/07/28 03:42:36;;;;;;;0.93;0.40;;;23.50;43.70;22.80;101640.00;;;;5024898;28;20403;-65
2022/07/28 03:45:23;;;;;;;1.00;0.60;;;23.60;43.80;22.80;101654.00;;;;5027060;28;20057;-66
2022/07/28 03:48:09;;;;;;;0.40;0.30;;;23.50;43.70;22.80;101653.00;;;;5040946;28;20049;-66
2022/07/28 03:50:55;;;;;;;1.05;0.43;;;23.50;43.80;22.80;101645.00;;;;5026475;28;20117;-65
2022/07/28 03:53:41;;;;;;;0.77;0.50;;;23.50;43.80;22.80;101645.00;;;;5027502;28;20041;-66
2022/07/28 03:56:27;;;;;;;1.50;0.50;;;23.50;43.70;22.80;101647.00;;;;5042801;28;20065;-66
2022/07/28 03:59:13;;;;;;;0.50;0.40;;;23.50;43.80;22.80;101645.00;;;;5026661;28;20419;-66
2022/07/28 04:01:59;;;;;;;0.63;0.32;;;23.50;43.80;22.80;101636.00;;;;5022046;28;20036;-66
2022/07/28 04:04:45;;;;;;;3.55;0.50;;;23.50;43.70;22.70;101639.00;;;;5025356;28;20557;-66
2022/07/28 04:07:31;;;;;;;0.52;0.38;;;23.50;43.80;22.70;101640.00;;;;5028601;28;20037;-66
2022/07/28 04:10:17;;;;;;;1.40;0.47;;;23.50;43.70;22.70;101633.00;;;;5022026;28;20046;-66
2022/07/28 04:13:04;;;;;;;1.00;0.43;;;23.50;43.70;22.70;101632.00;;;;5023218;28;20550;-66
2022/07/28 04:15:50;;;;;;;2.30;0.70;;;23.50;43.80;22.70;101630.00;;;;5042000;28;20408;-66
2022/07/28 04:18:36;;;;;;;1.77;0.60;;;23.50;43.80;22.70;101636.00;;;;5027779;28;20041;-66
2022/07/28 04:21:22;;;;;;;0.88;0.50;;;23.50;43.90;22.70;101627.00;;;;5023414;28;20498;-66
2022/07/28 04:24:09;;;;;;;1.05;0.60;;;23.40;43.80;22.70;101633.00;;;;5026262;28;20080;-65
2022/07/28 04:26:55;;;;;;;0.65;0.50;;;23.40;43.80;22.70;101635.00;;;;5016861;28;20102;-66
2022/07/28 04:29:41;;;;;;;0.70;0.50;;;23.40;43.80;22.70;101641.00;;;;5025941;28;20049;-66
2022/07/28 04:32:27;;;;;;;0.93;0.30;;;23.40;43.80;22.70;101640.00;;;;5024960;28;20045;-66
2022/07/28 04:35:14;;;;;;;0.68;0.40;;;23.40;43.70;22.70;101640.00;;;;5021258;28;20042;-66
2022/07/28 04:38:00;;;;;;;3.72;0.50;;;23.40;43.70;22.70;101628.00;;;;5026647;28;20041;-67
2022/07/28 04:40:47;;;;;;;1.42;0.40;;;23.40;43.70;22.70;101640.00;;;;5028080;28;20049;-66
2022/07/28 04:43:33;;;;;;;1.55;0.57;;;23.40;43.70;22.70;101643.00;;;;5021453;28;20583;-66
2022/07/28 04:46:19;;;;;;;2.47;0.68;;;23.40;43.80;22.60;101648.00;;;;5029098;28;20470;-66
2022/07/28 04:49:05;;;;;;;0.50;0.50;;;23.40;43.80;22.60;101641.00;;;;5020489;28;20045;-66
2022/07/28 04:51:51;;;;;;;0.82;0.60;;;23.40;43.80;22.60;101639.00;;;;5021242;28;20034;-66
2022/07/28 04:54:37;;;;;;;0.88;0.55;;;23.40;43.80;22.60;101639.00;;;;5024657;28;20408;-66
2022/07/28 04:57:26;;;;;;;0.80;0.32;;;23.30;43.70;22.60;101645.00;;;;5029347;28;20034;-66
2022/07/28 05:00:13;;;;;;;2.38;0.70;;;23.40;43.80;22.60;101646.00;;;;5027776;28;20096;-66
2022/07/28 05:03:01;;;;;;;1.17;0.60;;;23.40;43.80;22.60;101642.00;;;;5025388;28;20045;-66
2022/07/28 05:05:47;;;;;;;1.15;0.50;;;23.40;43.80;22.60;101642.00;;;;5029275;28;20034;-66
2022/07/28 05:08:33;;;;;;;1.70;0.50;;;23.40;43.80;22.60;101640.00;;;;5025349;28;20041;-66
2022/07/28 05:11:19;;;;;;;0.55;0.40;;;23.40;43.80;22.60;101636.00;;;;5021469;28;20041;-66
2022/07/28 05:14:05;;;;;;;1.50;0.57;;;23.30;43.80;22.60;101638.00;;;;5030311;28;20458;-66
2022/07/28 05:16:51;;;;;;;1.35;0.52;;;23.40;43.90;22.60;101635.00;;;;5027001;28;20052;-66
2022/07/28 05:19:38;;;;;;;1.13;0.52;;;23.30;43.80;22.60;101639.00;;;;5026420;28;20388;-65
2022/07/28 05:22:24;;;;;;;1.35;0.70;;;23.40;43.80;22.60;101639.00;;;;5025604;28;20048;-66
2022/07/28 05:25:21;;;;;;;1.48;0.70;;;23.30;43.80;22.60;101640.00;;;;5022971;28;20471;-66
2022/07/28 05:28:07;;;;;;;0.45;0.38;;;23.30;43.90;22.60;101643.00;;;;5029128;28;20132;-66
2022/07/28 05:30:53;;;;;;;0.75;0.47;;;23.40;43.90;22.60;101641.00;;;;5021364;28;20033;-65
2022/07/28 05:33:39;;;;;;;0.65;0.50;;;23.40;43.90;22.60;101647.00;;;;5030091;28;20033;-66
2022/07/28 05:36:26;;;;;;;1.92;0.50;;;23.30;43.90;22.60;101646.00;;;;5024588;28;20052;-66
2022/07/28 05:39:12;;;;;;;0.65;0.40;;;23.30;43.90;22.60;101643.00;;;;5021082;28;20053;-66
2022/07/28 05:41:59;;;;;;;2.45;0.50;;;23.40;43.90;22.60;101646.00;;;;5024633;28;20076;-66
2022/07/28 05:44:45;;;;;;;2.10;0.67;;;23.30;43.90;22.60;101654.00;;;;5021331;28;20048;-66
2022/07/28 05:47:31;;;;;;;0.80;0.47;;;23.40;43.90;22.60;101655.00;;;;5023390;28;20522;-66
2022/07/28 05:50:19;;;;;;;1.55;0.70;;;23.40;43.90;22.60;101654.00;;;;5020697;28;20046;-66
2022/07/28 05:53:05;;;;;;;0.85;0.45;;;23.30;43.90;22.60;101655.00;;;;5019270;28;20060;-66
2022/07/28 05:55:51;;;;;;;2.58;0.65;;;23.40;43.90;22.70;101665.00;;;;5018263;28;20045;-66
2022/07/28 05:58:37;;;;;;;0.57;0.40;;;23.50;44.00;22.70;101651.00;;;;5024692;28;20037;-66
2022/07/28 06:01:23;;;;;;;0.40;0.35;;;23.40;43.90;22.70;101647.00;;;;5026263;28;20514;-65
2022/07/28 06:04:09;;;;;;;2.15;0.70;;;23.40;43.80;22.70;101650.00;;;;5025928;28;20317;-66
2022/07/28 06:06:55;;;;;;;1.83;0.80;;;23.50;43.90;22.70;101645.00;;;;5024128;28;20037;-65
2022/07/28 06:09:41;;;;;;;2.30;0.50;;;23.50;44.00;22.70;101655.00;;;;5026410;28;20188;-65
2022/07/28 06:12:27;;;;;;;0.95;0.50;;;23.50;44.00;22.70;101652.00;;;;5020200;28;20037;-66
2022/07/28 06:15:15;;;;;;;1.00;0.60;;;23.50;44.00;22.70;101640.00;;;;5026943;28;20458;-66
2022/07/28 06:18:01;;;;;;;0.63;0.43;;;23.50;43.90;22.70;101647.00;;;;5024027;28;20419;-66
2022/07/28 06:20:47;;;;;;;0.95;0.40;;;23.50;43.90;22.70;101648.00;;;;5019756;28;20050;-66
2022/07/28 06:23:33;;;;;;;0.63;0.43;;;23.50;44.00;22.70;101648.00;;;;5028614;28;20379;-66
2022/07/28 06:26:21;;;;;;;0.73;0.40;;;23.50;44.00;22.80;101652.00;;;;5030552;28;20140;-66
2022/07/28 06:29:07;;;;;;;1.42;0.50;;;23.60;44.00;22.80;101652.00;;;;5019976;28;20088;-66
2022/07/28 06:31:53;;;;;;;1.30;0.45;;;23.60;44.00;22.80;101648.00;;;;5023691;28;20045;-66
2022/07/28 06:34:39;;;;;;;0.73;0.50;;;23.50;43.90;22.80;101655.00;;;;5018643;28;20034;-65
2022/07/28 06:37:25;;;;;;;1.92;0.43;;;23.60;43.90;22.80;101656.00;;;;5023173;28;20124;-66
2022/07/28 06:40:12;;;;;;;3.00;0.68;;;23.50;43.90;22.80;101656.00;;;;5021290;28;20502;-66
2022/07/28 06:42:58;;;;;;;3.20;0.60;;;23.70;43.90;22.80;101650.00;;;;5018771;28;20033;-66
2022/07/28 06:45:44;;;;;;;1.42;0.52;;;23.60;43.90;22.80;101650.00;;;;5022270;28;20044;-66
2022/07/28 06:48:30;;;;;;;2.08;0.65;;;23.70;43.90;22.80;101656.00;;;;5024772;28;20110;-66
2022/07/28 06:51:17;;;;;;;1.45;0.50;;;23.70;43.90;22.80;101648.00;;;;5021935;28;20034;-66
2022/07/28 06:54:04;;;;;;;0.80;0.50;;;23.70;43.80;22.80;101646.00;;;;5018708;28;20069;-66
2022/07/28 06:56:50;;;;;;;3.45;1.10;;;23.70;43.80;22.80;101647.00;;;;5020778;28;20088;-66
2022/07/28 06:59:36;;;;;;;1.63;0.45;;;23.80;43.80;22.80;101652.00;;;;5028954;28;20055;-66
2022/07/28 07:02:22;;;;;;;2.40;0.55;;;23.70;43.80;22.80;101651.00;;;;5021159;28;20450;-65
2022/07/28 07:05:09;;;;;;;1.30;0.55;;;23.70;44.40;22.80;101646.00;;;;5027938;28;20046;-66
2022/07/28 07:07:55;;;;;;;2.35;0.43;;;23.80;43.70;22.80;101649.00;;;;5023394;28;20227;-66
2022/07/28 07:10:41;;;;;;;1.33;0.60;;;23.80;43.70;22.90;101648.00;;;;5020070;28;20042;-66
2022/07/28 07:13:28;;;;;;;2.95;0.60;;;23.80;43.60;22.90;101649.00;;;;5028546;28;20045;-66
2022/07/28 07:16:14;;;;;;;1.55;0.40;;;23.80;43.60;22.90;101639.00;;;;5023840;28;20399;-66
2022/07/28 07:19:00;;;;;;;5.00;0.70;;;23.80;43.60;22.90;101641.00;;;;5023591;28;20043;-66
2022/07/28 07:21:47;;;;;;;1.80;0.40;;;23.80;43.50;22.90;101637.00;;;;5025202;28;20038;-66
2022/07/28 07:24:33;;;;;;;0.97;0.47;;;23.80;43.50;22.90;101639.00;;;;5039415;28;20040;-65
2022/07/28 07:27:19;;;;;;;1.00;0.43;;;23.80;44.20;22.90;101638.00;;;;5020899;28;20038;-66
2022/07/28 07:30:05;;;;;;;2.42;0.70;;;23.90;43.50;22.90;101644.00;;;;5018292;28;20034;-65
2022/07/28 07:32:51;;;;;;;1.20;0.20;;;23.80;43.40;22.90;101640.00;;;;5017111;28;20097;-66
2022/07/28 07:35:38;;;;;;;1.23;0.50;;;23.80;43.40;22.90;101642.00;;;;5018033;28;20523;-66
2022/07/28 07:38:24;;;;;;;1.65;0.40;;;23.80;43.40;22.90;101645.00;;;;5010915;28;20045;-66
2022/07/28 07:41:11;;;;;;;2.33;0.40;;;23.90;43.50;22.90;101646.00;;;;5022470;28;20046;-66
2022/07/28 07:43:57;;;;;;;1.63;0.55;;;23.80;43.40;22.90;101644.00;;;;5023434;28;20041;-66
2022/07/28 07:46:43;;;;;;;1.10;0.57;;;23.90;43.40;22.90;101642.00;;;;5020463;28;20566;-65
2022/07/28 07:49:29;;;;;;;2.25;0.60;;;23.90;43.40;22.90;101640.00;;;;5022717;28;20051;-66
2022/07/28 07:52:15;;;;;;;1.35;0.40;;;23.80;43.30;22.90;101634.00;;;;5019228;28;20403;-66
2022/07/28 07:55:01;;;;;;;0.75;0.30;;;23.80;43.30;22.90;101637.00;;;;5026798;28;20029;-66
2022/07/28 07:57:47;;;;;;;1.48;0.55;;;23.80;43.20;22.90;101629.00;;;;5027527;28;20545;-66
2022/07/28 08:00:33;;;;;;;3.28;0.63;;;23.80;43.20;22.90;101638.00;;;;5025953;28;20038;-66
2022/07/28 08:03:19;;;;;;;1.02;0.40;;;23.80;43.10;22.90;101633.00;;;;5026072;28;20041;-65
2022/07/28 08:06:05;;;;;;;1.88;0.52;;;23.90;43.10;22.90;101628.00;;;;5019138;28;20048;-67
2022/07/28 08:08:51;;;;;;;1.77;0.50;;;23.90;43.00;22.90;101633.00;;;;5020330;28;20049;-66
2022/07/28 08:11:37;;;;;;;1.63;0.38;;;23.90;43.00;22.90;101638.00;;;;5017353;28;20041;-65
2022/07/28 08:14:24;;;;;;;1.80;0.40;;;23.80;42.90;22.90;101630.00;;;;5019215;28;20073;-66
2022/07/28 08:17:10;;;;;;;0.55;0.30;;;23.90;43.00;22.90;101631.00;;;;5020320;28;20041;-66
2022/07/28 08:19:56;;;;;;;2.60;0.55;;;23.90;42.90;22.90;101632.00;;;;5017754;28;20033;-66
2022/07/28 08:22:49;;;;;;;1.65;0.40;;;23.90;42.80;22.90;101625.00;;;;5020485;28;20509;-66
2022/07/28 08:25:36;;;;;;;3.42;0.70;;;23.90;42.60;22.90;101627.00;;;;5026165;28;20049;-66
2022/07/28 08:28:22;;;;;;;1.75;0.45;;;23.90;42.80;22.90;101624.00;;;;5033020;28;20460;-66
2022/07/28 08:31:08;;;;;;;3.75;0.60;;;23.90;42.70;22.90;101625.00;;;;5019673;28;20045;-65
2022/07/28 08:33:55;;;;;;;4.88;0.60;;;23.90;42.70;23.00;101617.00;;;;5028352;28;20513;-66
2022/07/28 08:36:41;;;;;;;1.40;0.20;;;23.90;42.70;23.00;101614.00;;;;5026412;28;20033;-65
2022/07/28 08:39:27;;;;;;;2.67;0.80;;;23.90;42.60;23.00;101617.00;;;;5023633;28;20056;-66
2022/07/28 08:42:17;;;;;;;2.33;0.60;;;24.00;42.70;23.00;101613.00;;;;5023218;28;20568;-66
2022/07/28 08:45:06;;;;;;;1.20;0.52;;;23.90;42.50;23.00;101615.00;;;;5023190;28;20053;-67
2022/07/28 08:47:52;;;;;;;2.63;0.50;;;23.90;42.60;23.00;101614.00;;;;5024179;28;20173;-65
2022/07/28 08:50:39;;;;;;;1.38;0.50;;;23.90;42.50;23.00;101612.00;;;;5023430;28;20514;-66
2022/07/28 08:53:25;;;;;;;1.17;0.55;;;23.80;42.50;23.00;101608.00;;;;5025638;28;20045;-66
2022/07/28 08:56:13;;;;;;;1.92;0.57;;;23.90;42.50;23.00;101606.00;;;;5013345;28;20060;-65
2022/07/28 08:58:59;;;;;;;2.20;0.52;;;23.80;42.50;23.00;101598.00;;;;5009616;28;20103;-66
2022/07/28 09:01:45;;;;;;;2.05;0.55;;;23.90;42.50;23.00;101592.00;;;;5026593;28;20073;-66
2022/07/28 09:04:33;;;;;;;2.55;0.40;;;24.00;42.60;23.00;101591.00;;;;5017692;28;20250;-66
2022/07/28 09:07:19;;;;;;;;;;;23.90;42.40;23.00;101599.00;;;;5026441;28;20045;-65
2022/07/28 09:10:05;;;;;;;1.45;0.50;;;24.00;42.70;23.00;101593.00;;;;5022165;28;19924;-66
2022/07/28 09:12:51;;;;;;;0.85;0.40;;;24.00;42.40;23.00;101582.00;;;;5024038;28;20041;-66
2022/07/28 09:15:37;;;;;;;2.30;0.50;;;24.00;42.40;23.00;101577.00;;;;5026329;28;20042;-66
2022/07/28 09:18:23;;;;;;;1.52;0.60;;;24.00;42.40;23.00;101579.00;;;;5025973;28;20410;-66
2022/07/28 09:21:13;;;;;;;0.60;0.30;;;24.00;42.40;23.00;101573.00;;;;5017283;28;20053;-66
2022/07/28 09:24:00;;;;;;;1.38;0.40;;;24.00;42.50;23.00;101578.00;;;;5024572;28;20073;-66
2022/07/28 09:27:00;;;;;;;0.85;0.50;;;24.00;42.40;23.00;101581.00;;;;5023310;28;20045;-66
2022/07/28 09:29:58;;;;;;;1.15;0.35;;;23.90;42.20;23.00;101584.00;;;;5024146;28;20049;-65
2022/07/28 09:32:44;;;;;;;1.55;0.52;;;24.00;42.40;23.00;101582.00;;;;5024872;28;20047;-66
2022/07/28 09:35:30;;;;;;;2.28;0.50;;;24.00;42.40;23.00;101583.00;;;;5024171;28;20110;-66
2022/07/28 09:38:16;;;;;;;2.78;0.47;;;24.00;42.40;23.00;101584.00;;;;5014297;28;20056;-66
2022/07/28 09:41:05;;;;;;;1.35;0.65;;;24.00;42.40;23.00;101581.00;;;;5024422;28;20042;-66
2022/07/28 09:43:51;;;;;;;1.05;0.30;;;24.00;42.40;23.00;101580.00;;;;5021895;28;20510;-66
2022/07/28 09:46:37;;;;;;;0.93;0.47;;;24.00;42.30;23.10;101581.00;;;;5023237;28;20041;-66
2022/07/28 09:49:43;;;;;;;1.48;0.40;;;24.00;42.40;23.10;101574.00;;;;5023958;28;20056;-66
2022/07/28 09:52:37;;;;;;;1.35;0.57;;;24.00;42.20;23.10;101576.00;;;;5023832;28;20128;-66
2022/07/28 09:55:23;;;;;;;1.10;0.70;;;24.00;42.40;23.10;101571.00;;;;5022011;28;20037;-66
2022/07/28 09:58:09;;;;;;;1.80;0.95;;;24.00;42.20;23.10;101579.00;;;;5020648;28;20188;-66
2022/07/28 10:01:06;;;;;;;2.70;0.45;;;24.00;42.20;23.10;101578.00;;;;5020730;28;20046;-66
2022/07/28 10:03:57;;;;;;;1.08;0.60;;;24.00;42.10;23.10;101574.00;;;;5027198;28;20041;-66
2022/07/28 10:06:43;;;;;;;2.70;0.45;;;24.00;42.10;23.10;101584.00;;;;5034933;28;20046;-66
2022/07/28 10:09:29;;;;;;;2.05;0.52;;;24.00;42.10;23.10;101577.00;;;;5027993;28;20049;-66
2022/07/28 10:12:21;;;;;;;1.83;0.50;;;24.00;42.00;23.10;101577.00;;;;5022647;28;20099;-66
2022/07/28 10:18:24;;;;;;;1.80;0.68;;;24.00;42.00;23.10;101567.00;;;;5029948;28;20045;-66
2022/07/28 10:21:13;;;;;;;0.30;0.30;;;24.00;42.00;23.10;101563.00;;;;5019816;28;20056;-66
2022/07/28 10:24:04;;;;;;;3.85;0.70;;;24.00;42.00;23.10;101568.00;;;;5020749;28;20491;-66
2022/07/28 10:26:51;;;;;;;1.40;0.60;;;24.00;41.80;23.10;101566.00;;;;5038403;28;20080;-66
2022/07/28 10:29:37;;;;;;;1.47;0.30;;;24.10;41.90;23.10;101568.00;;;;5019199;28;20430;-65
2022/07/28 10:32:23;;;;;;;1.80;0.50;;;24.10;41.80;23.10;101567.00;;;;5015403;28;20041;-66
2022/07/28 10:35:14;;;;;;;1.90;0.50;;;24.10;41.80;23.10;101556.00;;;;5019493;28;20487;-66
2022/07/28 10:38:10;;;;;;;1.75;0.45;;;24.10;41.70;23.10;101556.00;;;;5027797;28;20116;-66
2022/07/28 10:40:57;;;;;;;0.60;0.45;;;24.10;41.70;23.10;101553.00;;;;5016805;28;20465;-66
2022/07/28 10:43:43;;;;;;;1.85;0.43;;;24.10;41.70;23.10;101544.00;;;;5023517;28;20038;-65
2022/07/28 10:46:29;;;;;;;1.52;0.40;;;24.10;41.70;23.10;101552.00;;;;5022408;28;20238;-66
2022/07/28 10:49:15;;;;;;;1.23;0.45;;;24.10;41.60;23.10;101547.00;;;;5026523;28;20490;-66
2022/07/28 10:52:01;;;;;;;1.50;0.30;;;24.10;41.70;23.20;101549.00;;;;5025820;28;20045;-66
2022/07/28 10:55:21;;;;;;;0.70;0.40;;;24.10;41.60;23.20;101552.00;;;;5025263;28;20416;-66
2022/07/28 10:58:29;;;;;;;0.88;0.32;;;24.10;41.40;23.10;101552.00;;;;5027219;28;20092;-66
2022/07/28 11:01:42;;;;;;;0.60;0.40;;;24.10;41.30;23.20;101541.00;;;;5022615;28;20038;-66
2022/07/28 11:04:40;;;;;;;1.38;0.40;;;24.10;41.50;23.20;101540.00;;;;5035191;28;20073;-66
2022/07/28 11:07:35;;;;;;;7.97;0.73;;;24.10;41.40;23.20;101538.00;;;;5019400;28;20103;-65
2022/07/28 11:10:21;;;;;;;1.80;0.40;;;24.20;41.40;23.20;101526.00;;;;5027997;28;20209;-66
2022/07/28 11:13:21;;;;;;;4.10;0.60;;;24.20;41.50;23.20;101533.00;;;;5014337;28;20403;-66
2022/07/28 11:16:13;;;;;;;3.28;0.50;;;24.20;41.40;23.20;101522.00;;;;5019015;28;20034;-66
2022/07/28 11:19:07;;;;;;;0.50;0.50;;;24.20;41.30;23.20;101528.00;;;;5025356;28;20466;-66
2022/07/28 11:25:01;;;;;;;2.05;0.65;;;24.20;41.20;23.20;101515.00;;;;5025818;28;20048;-66
2022/07/28 11:27:50;;;;;;;2.72;0.50;;;24.20;41.10;23.20;101509.00;;;;5019519;28;20063;-66
2022/07/28 11:30:38;;;;;;;4.63;0.82;;;24.20;41.10;23.20;101506.00;;;;5015373;28;20038;-65
2022/07/28 11:33:31;;;;;;;1.08;0.40;;;24.20;41.00;23.20;101498.00;;;;5025095;28;20046;-66
2022/07/28 11:36:17;;;;;;;1.48;0.52;;;24.30;41.10;23.20;101501.00;;;;5013986;28;20324;-66
2022/07/28 11:39:26;;;;;;;2.35;0.60;;;24.20;41.00;23.20;101510.00;;;;5020093;28;20049;-66
2022/07/28 11:42:27;;;;;;;0.88;0.50;;;24.20;40.90;23.20;101506.00;;;;5025085;28;20067;-66
2022/07/28 11:45:23;;;;;;;2.25;0.50;;;24.20;40.80;23.20;101508.00;;;;5028241;28;20135;-66
2022/07/28 11:48:14;;;;;;;1.38;0.38;;;24.20;40.80;23.20;101497.00;;;;5022810;28;20133;-66
2022/07/28 11:51:02;;;;;;;0.60;0.45;;;24.30;40.80;23.30;101498.00;;;;5030450;28;20576;-66
2022/07/28 11:53:52;;;;;;;1.17;0.25;;;24.30;40.80;23.30;101492.00;;;;5028083;28;20471;-66
2022/07/28 11:56:38;;;;;;;1.95;0.47;;;24.30;40.90;23.30;101485.00;;;;5021258;28;20398;-66
2022/07/28 11:59:24;;;;;;;3.03;0.60;;;24.20;40.80;23.30;101488.00;;;;5031225;28;20099;-66
2022/07/28 12:02:17;;;;;;;1.60;0.60;;;24.30;40.90;23.30;101483.00;;;;5022553;28;20491;-66
2022/07/28 12:05:07;;;;;;;1.27;0.40;;;24.30;40.70;23.30;101490.00;;;;5023769;28;20041;-66
2022/07/28 12:07:54;;;;;;;1.20;0.50;;;24.30;40.70;23.30;101479.00;;;;5026291;28;20462;-66
2022/07/28 12:10:40;;;;;;;0.20;0.20;;;24.30;40.80;23.30;101484.00;;;;5026626;28;20541;-66
2022/07/28 12:13:26;;;;;;;1.75;0.40;;;24.30;40.80;23.30;101487.00;;;;5024922;28;20550;-66
2022/07/28 12:16:13;;;;;;;1.27;0.60;;;24.40;40.80;23.30;101478.00;;;;5026364;28;20403;-66
2022/07/28 12:18:59;;;;;;;1.83;0.40;;;24.20;40.60;23.30;101475.00;;;;5021145;28;20483;-66
2022/07/28 12:21:53;;;;;;;0.68;0.50;;;24.30;40.60;23.30;101474.00;;;;5027695;28;20380;-66
2022/07/28 12:24:39;;;;;;;1.92;0.65;;;24.40;40.60;23.30;101473.00;;;;5024723;28;20056;-66
2022/07/28 12:27:26;;;;;;;2.40;0.35;;;24.30;40.60;23.30;101464.00;;;;5027639;28;20511;-66